createdAt,value
2023-04-02T00:00:59.346Z,8.99
2023-04-02T00:01:59.436Z,8.97
2023-04-02T00:02:59.371Z,8.97
2023-04-02T00:03:59.553Z,8.97
2023-04-02T00:04:59.304Z,8.99
2023-04-02T00:05:59.300Z,8.97
2023-04-02T00:06:59.276Z,8.95
2023-04-02T00:07:59.309Z,8.95
2023-04-02T00:08:59.252Z,8.95
2023-04-02T00:09:59.249Z,8.97
2023-04-02T00:10:59.230Z,8.97
2023-04-02T00:11:59.217Z,8.94
2023-04-02T00:12:59.206Z,8.94
2023-04-02T00:13:59.244Z,8.95
2023-04-02T00:14:59.189Z,8.95
2023-04-02T00:15:59.237Z,8.95
2023-04-02T00:16:59.174Z,8.95
2023-04-02T00:17:59.274Z,8.95
2023-04-02T00:18:59.167Z,8.95
2023-04-02T00:19:59.221Z,8.95
2023-04-02T00:20:59.140Z,8.92
2023-04-02T00:21:59.135Z,8.95
2023-04-02T00:22:59.119Z,8.95
2023-04-02T00:23:59.128Z,8.95
2023-04-02T00:24:59.082Z,8.95
2023-04-02T00:25:59.122Z,8.94
2023-04-02T00:26:59.066Z,8.94
2023-04-02T00:27:59.068Z,8.94
2023-04-02T00:28:59.064Z,8.94
2023-04-02T00:29:59.066Z,8.91
2023-04-02T00:30:59.039Z,8.91
2023-04-02T00:31:59.121Z,8.89
2023-04-02T00:32:59.104Z,8.89
2023-04-02T00:33:59.009Z,8.89
2023-04-02T00:34:59.003Z,8.91
2023-04-02T00:35:59.001Z,8.91
2023-04-02T00:36:58.964Z,8.89
2023-04-02T00:37:58.990Z,8.89
2023-04-02T00:38:58.941Z,8.89
2023-04-02T00:39:58.946Z,8.88
2023-04-02T00:40:58.943Z,8.88
2023-04-02T00:41:58.938Z,8.89
2023-04-02T00:42:59.424Z,8.88
2023-04-02T00:43:58.928Z,8.91
2023-04-02T00:44:58.913Z,8.92
2023-04-02T00:45:58.938Z,8.91
2023-04-02T00:46:58.884Z,8.91
2023-04-02T00:47:58.926Z,8.92
2023-04-02T00:48:58.890Z,8.91
2023-04-02T00:49:58.846Z,8.92
2023-04-02T00:50:58.833Z,8.92
2023-04-02T00:51:58.827Z,8.94
2023-04-02T00:52:58.838Z,8.92
2023-04-02T00:53:58.807Z,8.94
2023-04-02T00:54:58.780Z,8.92
2023-04-02T00:55:58.801Z,8.94
2023-04-02T00:56:58.834Z,8.94
2023-04-02T00:57:58.770Z,8.94
2023-04-02T00:58:58.782Z,8.92
2023-04-02T00:59:58.744Z,8.91
2023-04-02T01:00:58.763Z,8.92
2023-04-02T01:01:58.733Z,8.92
2023-04-02T01:02:58.774Z,8.92
2023-04-02T01:03:58.715Z,8.94
2023-04-02T01:04:58.686Z,8.94
2023-04-02T01:05:58.683Z,8.91
2023-04-02T01:06:58.670Z,8.92
2023-04-02T01:07:58.665Z,8.92
2023-04-02T01:08:58.655Z,8.94
2023-04-02T01:09:58.658Z,8.94
2023-04-02T01:10:58.632Z,8.91
2023-04-02T01:11:58.633Z,8.94
2023-04-02T01:12:58.602Z,8.94
2023-04-02T01:13:58.592Z,8.92
2023-04-02T01:14:58.635Z,8.92
2023-04-02T01:15:58.620Z,8.92
2023-04-02T01:16:58.571Z,8.92
2023-04-02T01:17:58.663Z,8.92
2023-04-02T01:18:58.559Z,8.91
2023-04-02T01:19:58.675Z,8.89
2023-04-02T01:20:58.550Z,8.91
2023-04-02T01:21:58.507Z,8.89
2023-04-02T01:22:58.496Z,8.89
2023-04-02T01:23:58.483Z,8.91
2023-04-02T01:24:58.478Z,8.89
2023-04-02T01:25:58.488Z,8.89
2023-04-02T01:26:58.475Z,8.91
2023-04-02T01:27:58.444Z,8.91
2023-04-02T01:28:58.436Z,8.91
2023-04-02T01:29:58.471Z,8.89
2023-04-02T01:30:58.463Z,8.92
2023-04-02T01:31:58.427Z,8.91
2023-04-02T01:32:58.426Z,8.91
2023-04-02T01:33:58.390Z,8.91
2023-04-02T01:34:58.442Z,8.91
2023-04-02T01:35:58.390Z,8.89
2023-04-02T01:36:58.358Z,8.91
2023-04-02T01:37:58.356Z,8.91
2023-04-02T01:38:58.334Z,8.91
2023-04-02T01:39:58.344Z,8.91
2023-04-02T01:40:58.367Z,8.92
2023-04-02T01:41:58.322Z,8.91
2023-04-02T01:42:58.297Z,8.91
2023-04-02T01:43:58.306Z,8.91
2023-04-02T01:44:58.269Z,8.91
2023-04-02T01:45:58.270Z,8.92
2023-04-02T01:46:58.268Z,8.92
2023-04-02T01:47:58.290Z,8.92
2023-04-02T01:48:58.239Z,8.91
2023-04-02T01:49:58.228Z,8.89
2023-04-02T01:50:58.223Z,8.92
2023-04-02T01:51:58.223Z,8.92
2023-04-02T01:52:58.196Z,8.94
2023-04-02T01:53:58.198Z,8.92
2023-04-02T01:54:58.186Z,8.94
2023-04-02T01:55:58.177Z,8.94
2023-04-02T01:56:58.261Z,8.92
2023-04-02T01:57:58.155Z,8.95
2023-04-02T01:58:58.136Z,8.95
2023-04-02T01:59:58.137Z,8.99
2023-04-02T02:00:58.189Z,8.99
2023-04-02T02:01:58.160Z,8.99
2023-04-02T02:02:58.133Z,9.00
2023-04-02T02:03:58.084Z,8.99
2023-04-02T02:04:58.069Z,8.99
2023-04-02T02:05:58.067Z,8.99
2023-04-02T02:06:58.050Z,8.97
2023-04-02T02:07:58.076Z,8.99
2023-04-02T02:08:58.057Z,8.97
2023-04-02T02:09:58.058Z,8.94
2023-04-02T02:10:58.015Z,8.95
2023-04-02T02:11:58.016Z,8.95
2023-04-02T02:12:58.009Z,8.95
2023-04-02T02:13:58.012Z,8.97
2023-04-02T02:14:57.995Z,8.97
2023-04-02T02:15:57.999Z,8.99
2023-04-02T02:16:57.947Z,8.97
2023-04-02T02:17:58.012Z,8.95
2023-04-02T02:18:57.935Z,8.99
2023-04-02T02:19:57.945Z,8.99
2023-04-02T02:20:57.906Z,8.99
2023-04-02T02:21:57.914Z,9.00
2023-04-02T02:22:57.888Z,8.99
2023-04-02T02:23:57.873Z,8.99
2023-04-02T02:24:57.931Z,8.99
2023-04-02T02:25:57.888Z,9.00
2023-04-02T02:26:57.869Z,9.00
2023-04-02T02:27:57.862Z,8.99
2023-04-02T02:28:57.847Z,8.99
2023-04-02T02:29:57.829Z,8.99
2023-04-02T02:30:57.848Z,9.00
2023-04-02T02:31:57.849Z,9.00
2023-04-02T02:32:57.841Z,9.00
2023-04-02T02:33:57.780Z,9.00
2023-04-02T02:34:57.765Z,9.02
2023-04-02T02:35:57.823Z,9.00
2023-04-02T02:36:57.760Z,9.00
2023-04-02T02:37:57.766Z,9.02
2023-04-02T02:38:57.752Z,9.02
2023-04-02T02:39:57.728Z,8.99
2023-04-02T02:40:57.717Z,9.00
2023-04-02T02:41:57.747Z,9.00
2023-04-02T02:42:57.693Z,9.00
2023-04-02T02:43:57.674Z,8.99
2023-04-02T02:44:57.690Z,8.99
2023-04-02T02:45:57.681Z,8.99
2023-04-02T02:46:57.652Z,8.97
2023-04-02T02:47:57.715Z,8.99
2023-04-02T02:48:57.645Z,8.97
2023-04-02T02:49:59.083Z,8.95
2023-04-02T02:50:57.644Z,8.95
2023-04-02T02:51:57.602Z,8.95
2023-04-02T02:52:57.610Z,8.95
2023-04-02T02:53:57.615Z,8.95
2023-04-02T02:54:57.590Z,8.95
2023-04-02T02:55:57.579Z,8.97
2023-04-02T02:56:57.631Z,8.95
2023-04-02T02:57:57.564Z,8.97
2023-04-02T02:58:57.529Z,8.95
2023-04-02T02:59:57.505Z,8.97
2023-04-02T03:00:57.555Z,8.94
2023-04-02T03:01:57.484Z,8.94
2023-04-02T03:02:57.619Z,8.92
2023-04-02T03:03:57.704Z,8.92
2023-04-02T03:04:57.472Z,8.94
2023-04-02T03:05:57.454Z,8.91
2023-04-02T03:06:57.456Z,8.91
2023-04-02T03:07:57.437Z,8.91
2023-04-02T03:08:57.415Z,8.91
2023-04-02T03:09:57.447Z,8.91
2023-04-02T03:10:57.398Z,8.92
2023-04-02T03:11:57.398Z,8.92
2023-04-02T03:12:57.398Z,8.89
2023-04-02T03:13:57.382Z,8.92
2023-04-02T03:14:57.368Z,8.91
2023-04-02T03:15:57.409Z,8.92
2023-04-02T03:16:57.354Z,8.91
2023-04-02T03:17:57.385Z,8.94
2023-04-02T03:18:57.325Z,8.94
2023-04-02T03:19:57.326Z,8.92
2023-04-02T03:20:57.313Z,8.92
2023-04-02T03:21:57.319Z,8.94
2023-04-02T03:22:57.286Z,8.94
2023-04-02T03:23:57.256Z,8.92
2023-04-02T03:24:57.263Z,8.92
2023-04-02T03:25:57.250Z,8.94
2023-04-02T03:26:57.265Z,8.92
2023-04-02T03:27:57.256Z,8.94
2023-04-02T03:28:57.245Z,8.92
2023-04-02T03:29:57.227Z,8.92
2023-04-02T03:30:57.242Z,8.91
2023-04-02T03:31:57.206Z,8.94
2023-04-02T03:32:57.261Z,8.91
2023-04-02T03:33:57.187Z,8.91
2023-04-02T03:34:57.173Z,8.91
2023-04-02T03:35:57.171Z,8.91
2023-04-02T03:36:57.147Z,8.89
2023-04-02T03:37:57.135Z,8.89
2023-04-02T03:38:57.163Z,8.89
2023-04-02T03:39:57.110Z,8.89
2023-04-02T03:40:57.117Z,8.89
2023-04-02T03:41:57.092Z,8.91
2023-04-02T03:42:57.090Z,8.89
2023-04-02T03:43:57.082Z,8.91
2023-04-02T03:44:57.090Z,8.91
2023-04-02T03:45:57.047Z,8.89
2023-04-02T03:46:57.044Z,8.89
2023-04-02T03:47:57.100Z,8.91
2023-04-02T03:48:57.015Z,8.89
2023-04-02T03:49:57.027Z,8.89
2023-04-02T03:50:57.003Z,8.88
2023-04-02T03:51:56.977Z,8.88
2023-04-02T03:52:56.995Z,8.88
2023-04-02T03:53:56.977Z,8.88
2023-04-02T03:54:56.966Z,8.88
2023-04-02T03:55:56.980Z,8.85
2023-04-02T03:56:56.999Z,8.85
2023-04-02T03:57:56.943Z,8.85
2023-04-02T03:58:56.935Z,8.85
2023-04-02T03:59:56.920Z,8.85
2023-04-02T04:00:56.902Z,8.85
2023-04-02T04:01:56.975Z,8.81
2023-04-02T04:02:56.921Z,8.74
2023-04-02T04:03:56.902Z,8.67
2023-04-02T04:04:56.862Z,8.67
2023-04-02T04:05:56.854Z,8.66
2023-04-02T04:06:56.832Z,8.64
2023-04-02T04:07:56.940Z,8.58
2023-04-02T04:08:56.828Z,8.56
2023-04-02T04:09:56.821Z,8.55
2023-04-02T04:10:56.843Z,8.49
2023-04-02T04:11:56.800Z,8.45
2023-04-02T04:12:56.803Z,8.44
2023-04-02T04:13:56.795Z,8.42
2023-04-02T04:14:56.767Z,8.38
2023-04-02T04:15:56.752Z,8.37
2023-04-02T04:16:56.858Z,8.36
2023-04-02T04:17:56.755Z,8.33
2023-04-02T04:18:56.720Z,8.28
2023-04-02T04:19:56.693Z,8.26
2023-04-02T04:20:57.033Z,8.23
2023-04-02T04:21:56.682Z,8.23
2023-04-02T04:22:56.689Z,8.18
2023-04-02T04:23:56.671Z,8.16
2023-04-02T04:24:56.675Z,8.19
2023-04-02T04:25:56.649Z,8.19
2023-04-02T04:26:56.650Z,8.19
2023-04-02T04:27:56.667Z,8.19
2023-04-02T04:28:56.619Z,8.19
2023-04-02T04:29:56.614Z,8.16
2023-04-02T04:30:56.633Z,8.18
2023-04-02T04:31:56.626Z,8.13
2023-04-02T04:32:56.656Z,8.10
2023-04-02T04:33:56.552Z,8.01
2023-04-02T04:34:56.556Z,7.94
2023-04-02T04:35:56.606Z,7.87
2023-04-02T04:36:56.590Z,7.80
2023-04-02T04:37:56.526Z,7.79
2023-04-02T04:38:56.508Z,7.76
2023-04-02T04:39:56.514Z,7.72
2023-04-02T04:40:56.502Z,7.70
2023-04-02T04:41:56.496Z,7.70
2023-04-02T04:42:56.530Z,7.70
2023-04-02T04:43:56.462Z,7.75
2023-04-02T04:44:56.453Z,7.72
2023-04-02T04:45:56.488Z,7.73
2023-04-02T04:46:56.471Z,7.72
2023-04-02T04:47:56.486Z,7.69
2023-04-02T04:48:56.434Z,7.67
2023-04-02T04:49:56.406Z,7.67
2023-04-02T04:50:56.396Z,7.66
2023-04-02T04:51:56.395Z,7.61
2023-04-02T04:52:56.387Z,7.63
2023-04-02T04:53:56.395Z,7.58
2023-04-02T04:54:56.371Z,7.58
2023-04-02T04:55:59.719Z,7.58
2023-04-02T04:56:56.395Z,7.57
2023-04-02T04:57:56.307Z,7.60
2023-04-02T04:58:56.315Z,7.60
2023-04-02T04:59:56.310Z,7.56
2023-04-02T05:00:56.284Z,7.53
2023-04-02T05:01:56.372Z,7.50
2023-04-02T05:02:56.323Z,7.51
2023-04-02T05:03:56.262Z,7.48
2023-04-02T05:04:56.319Z,7.48
2023-04-02T05:05:56.247Z,7.50
2023-04-02T05:06:56.253Z,7.47
2023-04-02T05:07:57.087Z,7.43
2023-04-02T05:08:56.231Z,7.40
2023-04-02T05:09:56.207Z,7.38
2023-04-02T05:10:56.231Z,7.39
2023-04-02T05:11:56.196Z,7.35
2023-04-02T05:12:56.217Z,7.31
2023-04-02T05:13:56.161Z,7.29
2023-04-02T05:14:56.144Z,7.31
2023-04-02T05:15:56.151Z,7.29
2023-04-02T05:16:56.151Z,7.25
2023-04-02T05:17:56.184Z,7.28
2023-04-02T05:18:56.111Z,7.28
2023-04-02T05:19:56.121Z,7.24
2023-04-02T05:20:56.094Z,7.24
2023-04-02T05:21:56.104Z,7.28
2023-04-02T05:22:56.067Z,7.28
2023-04-02T05:23:56.057Z,7.24
2023-04-02T05:24:56.035Z,7.24
2023-04-02T05:25:56.034Z,7.23
2023-04-02T05:26:56.047Z,7.21
2023-04-02T05:27:56.013Z,7.20
2023-04-02T05:28:56.026Z,7.14
2023-04-02T05:29:56.047Z,7.13
2023-04-02T05:30:56.025Z,7.11
2023-04-02T05:31:55.988Z,7.10
2023-04-02T05:32:56.531Z,7.05
2023-04-02T05:33:55.961Z,7.05
2023-04-02T05:34:55.954Z,7.03
2023-04-02T05:35:55.979Z,7.02
2023-04-02T05:36:55.923Z,7.00
2023-04-02T05:37:55.913Z,7.00
2023-04-02T05:38:55.927Z,6.99
2023-04-02T05:39:55.903Z,6.97
2023-04-02T05:40:55.876Z,7.00
2023-04-02T05:41:55.872Z,7.02
2023-04-02T05:42:55.866Z,7.03
2023-04-02T05:43:55.874Z,7.05
2023-04-02T05:44:55.862Z,7.03
2023-04-02T05:45:55.847Z,7.02
2023-04-02T05:46:55.917Z,7.02
2023-04-02T05:47:55.846Z,7.02
2023-04-02T05:48:55.820Z,7.05
2023-04-02T05:49:55.815Z,7.03
2023-04-02T05:50:55.792Z,7.06
2023-04-02T05:51:57.423Z,7.05
2023-04-02T05:52:55.793Z,7.00
2023-04-02T05:53:55.770Z,6.99
2023-04-02T05:54:55.763Z,7.00
2023-04-02T05:55:55.781Z,6.97
2023-04-02T05:56:55.778Z,6.96
2023-04-02T05:58:13.621Z,6.95
2023-04-02T05:58:55.869Z,6.96
2023-04-02T05:59:55.701Z,6.96
2023-04-02T06:00:55.722Z,6.96
2023-04-02T06:01:55.723Z,6.96
2023-04-02T06:02:55.707Z,6.88
2023-04-02T06:03:55.696Z,6.89
2023-04-02T06:04:55.655Z,6.87
2023-04-02T06:05:55.628Z,6.88
2023-04-02T06:06:55.659Z,6.87
2023-04-02T06:07:55.609Z,6.87
2023-04-02T06:08:55.627Z,6.88
2023-04-02T06:09:55.608Z,6.89
2023-04-02T06:10:55.590Z,6.85
2023-04-02T06:11:55.583Z,6.87
2023-04-02T06:12:56.047Z,6.88
2023-04-02T06:13:55.562Z,6.87
2023-04-02T06:14:55.557Z,6.87
2023-04-02T06:15:55.547Z,6.85
2023-04-02T06:16:55.626Z,6.85
2023-04-02T06:17:55.509Z,6.88
2023-04-02T06:18:55.536Z,6.82
2023-04-02T06:19:55.491Z,6.81
2023-04-02T06:20:55.568Z,6.79
2023-04-02T06:21:55.578Z,6.79
2023-04-02T06:22:55.478Z,6.79
2023-04-02T06:23:55.511Z,6.75
2023-04-02T06:24:55.442Z,6.75
2023-04-02T06:25:55.426Z,6.75
2023-04-02T06:26:55.421Z,6.72
2023-04-02T06:27:55.414Z,6.74
2023-04-02T06:28:55.396Z,6.74
2023-04-02T06:29:55.498Z,6.70
2023-04-02T06:30:55.390Z,6.66
2023-04-02T06:31:55.369Z,6.63
2023-04-02T06:32:55.431Z,6.60
2023-04-02T06:33:55.366Z,6.62
2023-04-02T06:34:55.350Z,6.60
2023-04-02T06:35:55.389Z,6.59
2023-04-02T06:36:55.332Z,6.56
2023-04-02T06:37:55.357Z,6.57
2023-04-02T06:38:55.315Z,6.59
2023-04-02T06:39:55.306Z,6.62
2023-04-02T06:40:56.958Z,6.60
2023-04-02T06:41:55.268Z,6.63
2023-04-02T06:42:55.267Z,6.66
2023-04-02T06:43:55.287Z,6.66
2023-04-02T06:44:55.233Z,6.67
2023-04-02T06:45:55.296Z,6.69
2023-04-02T06:46:55.225Z,6.69
2023-04-02T06:47:55.260Z,6.69
2023-04-02T06:48:55.250Z,6.70
2023-04-02T06:49:55.204Z,6.67
2023-04-02T06:50:55.201Z,6.66
2023-04-02T06:51:55.191Z,6.64
2023-04-02T06:52:55.163Z,6.60
2023-04-02T06:53:55.158Z,6.60
2023-04-02T06:54:55.228Z,6.59
2023-04-02T06:55:55.153Z,6.54
2023-04-02T06:56:55.173Z,6.54
2023-04-02T06:57:55.121Z,6.54
2023-04-02T06:58:55.106Z,6.52
2023-04-02T06:59:55.099Z,6.51
2023-04-02T07:00:55.128Z,6.51
2023-04-02T07:01:55.160Z,6.48
2023-04-02T07:02:55.120Z,6.42
2023-04-02T07:03:55.072Z,6.41
2023-04-02T07:04:55.079Z,6.36
2023-04-02T07:05:55.033Z,6.36
2023-04-02T07:06:55.053Z,6.35
2023-04-02T07:07:55.000Z,6.31
2023-04-02T07:08:54.986Z,6.28
2023-04-02T07:09:55.012Z,6.27
2023-04-02T07:10:54.974Z,6.30
2023-04-02T07:11:54.970Z,6.27
2023-04-02T07:12:54.968Z,6.26
2023-04-02T07:13:54.964Z,6.27
2023-04-02T07:14:54.944Z,6.27
2023-04-02T07:15:54.989Z,6.27
2023-04-02T07:16:54.929Z,6.27
2023-04-02T07:17:55.007Z,6.30
2023-04-02T07:18:54.908Z,6.27
2023-04-02T07:19:54.915Z,6.30
2023-04-02T07:20:54.908Z,6.30
2023-04-02T07:21:54.860Z,6.31
2023-04-02T07:22:54.847Z,6.31
2023-04-02T07:23:54.840Z,6.28
2023-04-02T07:24:54.841Z,6.28
2023-04-02T07:25:54.876Z,6.22
2023-04-02T07:26:54.817Z,6.17
2023-04-02T07:27:54.816Z,6.17
2023-04-02T07:28:54.786Z,6.16
2023-04-02T07:29:54.776Z,6.14
2023-04-02T07:30:54.771Z,6.12
2023-04-02T07:31:54.799Z,6.11
2023-04-02T07:32:54.806Z,6.09
2023-04-02T07:33:54.759Z,6.07
2023-04-02T07:34:54.730Z,6.05
2023-04-02T07:35:54.799Z,6.04
2023-04-02T07:36:54.729Z,6.04
2023-04-02T07:37:54.733Z,6.02
2023-04-02T07:38:54.707Z,6.02
2023-04-02T07:39:54.687Z,6.07
2023-04-02T07:40:54.683Z,6.04
2023-04-02T07:41:54.721Z,6.05
2023-04-02T07:42:54.677Z,6.08
2023-04-02T07:43:54.657Z,6.11
2023-04-02T07:44:54.622Z,6.11
2023-04-02T07:45:54.617Z,6.14
2023-04-02T07:46:54.660Z,6.14
2023-04-02T07:47:54.662Z,6.14
2023-04-02T07:48:54.593Z,6.16
2023-04-02T07:49:54.588Z,6.14
2023-04-02T07:50:54.574Z,6.08
2023-04-02T07:51:54.568Z,6.08
2023-04-02T07:52:54.554Z,6.04
2023-04-02T07:53:54.577Z,6.01
2023-04-02T07:54:54.533Z,5.97
2023-04-02T07:55:54.531Z,5.91
2023-04-02T07:56:54.587Z,5.90
2023-04-02T07:57:54.506Z,5.89
2023-04-02T07:58:54.492Z,5.87
2023-04-02T07:59:54.525Z,5.86
2023-04-02T08:00:54.472Z,5.86
2023-04-02T08:01:54.521Z,5.83
2023-04-02T08:02:54.542Z,5.75
2023-04-02T08:03:54.827Z,5.73
2023-04-02T08:04:54.450Z,5.79
2023-04-02T08:05:54.473Z,5.79
2023-04-02T08:06:54.416Z,5.75
2023-04-02T08:07:54.416Z,5.72
2023-04-02T08:08:54.385Z,5.69
2023-04-02T08:09:54.383Z,5.72
2023-04-02T08:10:54.369Z,5.75
2023-04-02T08:11:54.411Z,5.80
2023-04-02T08:12:54.339Z,5.82
2023-04-02T08:13:54.361Z,5.87
2023-04-02T08:14:54.328Z,5.89
2023-04-02T08:15:54.316Z,5.89
2023-04-02T08:16:54.403Z,5.90
2023-04-02T08:17:54.438Z,5.91
2023-04-02T08:18:54.305Z,5.90
2023-04-02T08:19:55.324Z,5.91
2023-04-02T08:20:54.303Z,5.89
2023-04-02T08:21:54.296Z,5.89
2023-04-02T08:22:54.292Z,5.90
2023-04-02T08:23:54.263Z,5.90
2023-04-02T08:24:54.244Z,5.87
2023-04-02T08:25:54.234Z,5.87
2023-04-02T08:26:54.239Z,5.89
2023-04-02T08:27:54.231Z,5.83
2023-04-02T08:28:54.209Z,5.83
2023-04-02T08:29:54.194Z,5.84
2023-04-02T08:30:54.185Z,5.84
2023-04-02T08:31:54.174Z,5.89
2023-04-02T08:32:54.258Z,5.91
2023-04-02T08:33:54.264Z,5.94
2023-04-02T08:34:54.141Z,5.94
2023-04-02T08:35:54.187Z,5.99
2023-04-02T08:36:54.154Z,6.01
2023-04-02T08:37:54.115Z,6.01
2023-04-02T08:38:54.108Z,6.02
2023-04-02T08:39:54.126Z,6.07
2023-04-02T08:40:54.080Z,6.08
2023-04-02T08:41:54.076Z,6.12
2023-04-02T08:42:54.048Z,6.17
2023-04-02T08:43:54.038Z,6.12
2023-04-02T08:44:54.031Z,6.16
2023-04-02T08:45:54.054Z,6.16
2023-04-02T08:46:54.008Z,6.14
2023-04-02T08:47:54.110Z,6.17
2023-04-02T08:48:53.998Z,6.19
2023-04-02T08:49:53.989Z,6.22
2023-04-02T08:50:54.304Z,6.22
2023-04-02T08:51:53.983Z,6.24
2023-04-02T08:52:53.966Z,6.22
2023-04-02T08:53:53.956Z,6.22
2023-04-02T08:54:53.948Z,6.22
2023-04-02T08:55:53.945Z,6.24
2023-04-02T08:56:53.969Z,6.28
2023-04-02T08:57:53.903Z,6.24
2023-04-02T08:58:53.886Z,6.26
2023-04-02T08:59:53.885Z,6.24
2023-04-02T09:00:53.873Z,6.22
2023-04-02T09:01:53.935Z,6.26
2023-04-02T09:02:53.910Z,6.27
2023-04-02T09:03:53.846Z,6.30
2023-04-02T09:04:53.862Z,6.27
2023-04-02T09:05:53.810Z,6.30
2023-04-02T09:06:53.808Z,6.31
2023-04-02T09:07:53.801Z,6.35
2023-04-02T09:08:53.810Z,6.31
2023-04-02T09:09:53.776Z,6.35
2023-04-02T09:10:53.766Z,6.36
2023-04-02T09:11:53.760Z,6.38
2023-04-02T09:12:53.789Z,6.27
2023-04-02T09:13:53.777Z,6.30
2023-04-02T09:14:53.737Z,6.27
2023-04-02T09:15:53.734Z,6.24
2023-04-02T09:16:53.726Z,6.27
2023-04-02T09:17:54.614Z,6.27
2023-04-02T09:18:54.046Z,6.28
2023-04-02T09:19:53.695Z,6.30
2023-04-02T09:20:53.668Z,6.28
2023-04-02T09:21:53.691Z,6.24
2023-04-02T09:22:53.652Z,6.26
2023-04-02T09:23:53.642Z,6.26
2023-04-02T09:24:53.667Z,6.26
2023-04-02T09:26:03.515Z,6.26
2023-04-02T09:26:53.604Z,6.24
2023-04-02T09:27:53.601Z,6.27
2023-04-02T09:28:53.610Z,6.28
2023-04-02T09:29:53.634Z,6.26
2023-04-02T09:30:53.572Z,6.30
2023-04-02T09:31:53.641Z,6.31
2023-04-02T09:32:53.585Z,6.30
2023-04-02T09:33:53.551Z,6.27
2023-04-02T09:34:53.536Z,6.24
2023-04-02T09:35:53.589Z,6.16
2023-04-02T09:36:53.510Z,6.16
2023-04-02T09:37:53.508Z,6.12
2023-04-02T09:38:53.483Z,6.12
2023-04-02T09:39:53.480Z,6.11
2023-04-02T09:40:53.504Z,6.12
2023-04-02T09:42:02.739Z,6.11
2023-04-02T09:42:53.451Z,6.09
2023-04-02T09:43:53.440Z,6.09
2023-04-02T09:44:53.435Z,6.11
2023-04-02T09:45:53.454Z,6.14
2023-04-02T09:46:53.464Z,6.16
2023-04-02T09:47:53.448Z,6.17
2023-04-02T09:48:53.475Z,6.22
2023-04-02T09:49:53.377Z,6.27
2023-04-02T09:50:53.378Z,6.27
2023-04-02T09:51:53.391Z,6.30
2023-04-02T09:52:53.370Z,6.27
2023-04-02T09:53:53.361Z,6.26
2023-04-02T09:54:53.342Z,6.26
2023-04-02T09:55:53.333Z,6.28
2023-04-02T09:56:53.334Z,6.33
2023-04-02T09:57:53.334Z,6.36
2023-04-02T09:58:53.303Z,6.42
2023-04-02T09:59:53.297Z,6.46
2023-04-02T10:00:53.298Z,6.46
2023-04-02T10:01:53.261Z,6.41
2023-04-02T10:02:53.307Z,6.42
2023-04-02T10:03:53.268Z,6.42
2023-04-02T10:04:53.230Z,6.48
2023-04-02T10:05:53.240Z,6.51
2023-04-02T10:06:53.231Z,6.54
2023-04-02T10:07:53.214Z,6.54
2023-04-02T10:08:53.222Z,6.48
2023-04-02T10:09:53.181Z,6.46
2023-04-02T10:10:53.165Z,6.45
2023-04-02T10:11:53.171Z,6.45
2023-04-02T10:12:53.150Z,6.42
2023-04-02T10:13:53.159Z,6.46
2023-04-02T10:14:53.149Z,6.48
2023-04-02T10:15:53.137Z,6.51
2023-04-02T10:16:53.297Z,6.48
2023-04-02T10:17:53.153Z,6.46
2023-04-02T10:18:53.103Z,6.46
2023-04-02T10:19:53.117Z,6.48
2023-04-02T10:20:53.080Z,6.52
2023-04-02T10:21:53.079Z,6.54
2023-04-02T10:22:53.059Z,6.56
2023-04-02T10:23:53.056Z,6.60
2023-04-02T10:24:53.033Z,6.66
2023-04-02T10:25:53.054Z,6.69
2023-04-02T10:26:53.008Z,6.74
2023-04-02T10:27:52.987Z,6.75
2023-04-02T10:28:52.996Z,6.77
2023-04-02T10:29:52.990Z,6.81
2023-04-02T10:30:53.008Z,6.84
2023-04-02T10:31:52.984Z,6.93
2023-04-02T10:32:53.081Z,6.95
2023-04-02T10:33:52.955Z,6.95
2023-04-02T10:34:52.956Z,6.99
2023-04-02T10:35:52.981Z,7.03
2023-04-02T10:36:52.951Z,7.03
2023-04-02T10:37:52.907Z,7.03
2023-04-02T10:38:52.908Z,7.00
2023-04-02T10:39:52.902Z,7.00
2023-04-02T10:40:53.695Z,6.97
2023-04-02T10:41:52.886Z,6.97
2023-04-02T10:42:52.855Z,6.99
2023-04-02T10:43:52.843Z,6.96
2023-04-02T10:44:52.856Z,6.85
2023-04-02T10:45:52.881Z,6.84
2023-04-02T10:46:52.822Z,6.84
2023-04-02T10:47:52.906Z,6.87
2023-04-02T10:48:52.826Z,6.89
2023-04-02T10:49:52.848Z,6.92
2023-04-02T10:50:52.827Z,6.96
2023-04-02T10:51:52.771Z,6.96
2023-04-02T10:52:53.544Z,6.93
2023-04-02T10:53:52.749Z,6.95
2023-04-02T10:54:52.771Z,6.97
2023-04-02T10:55:52.737Z,7.00
2023-04-02T10:56:52.777Z,7.02
2023-04-02T10:57:52.703Z,7.03
2023-04-02T10:58:52.710Z,7.05
2023-04-02T10:59:52.681Z,7.05
2023-04-02T11:00:52.681Z,7.06
2023-04-02T11:01:52.777Z,7.02
2023-04-02T11:02:52.757Z,6.99
2023-04-02T11:03:52.786Z,6.95
2023-04-02T11:04:52.906Z,6.95
2023-04-02T11:05:52.623Z,6.96
2023-04-02T11:06:56.083Z,6.96
2023-04-02T11:07:52.616Z,6.95
2023-04-02T11:08:52.607Z,6.96
2023-04-02T11:09:52.588Z,6.96
2023-04-02T11:10:52.572Z,6.92
2023-04-02T11:11:52.578Z,6.85
2023-04-02T11:12:52.559Z,6.82
2023-04-02T11:13:52.573Z,6.75
2023-04-02T11:14:52.551Z,6.78
2023-04-02T11:15:52.543Z,6.74
2023-04-02T11:16:52.538Z,6.69
2023-04-02T11:17:52.510Z,6.69
2023-04-02T11:18:52.491Z,6.72
2023-04-02T11:19:52.508Z,6.69
2023-04-02T11:20:52.472Z,6.67
2023-04-02T11:21:58.501Z,6.63
2023-04-02T11:22:52.447Z,6.54
2023-04-02T11:23:52.425Z,6.54
2023-04-02T11:24:52.459Z,6.52
2023-04-02T11:25:52.407Z,6.54
2023-04-02T11:26:52.407Z,6.51
2023-04-02T11:27:52.392Z,6.51
2023-04-02T11:28:52.392Z,6.48
2023-04-02T11:29:52.412Z,6.45
2023-04-02T11:30:52.399Z,6.42
2023-04-02T11:31:52.429Z,6.36
2023-04-02T11:32:52.494Z,6.38
2023-04-02T11:33:52.361Z,6.36
2023-04-02T11:35:05.229Z,6.33
2023-04-02T11:35:52.372Z,6.33
2023-04-02T11:36:52.315Z,6.35
2023-04-02T11:37:52.309Z,6.35
2023-04-02T11:38:52.558Z,6.39
2023-04-02T11:39:52.278Z,6.44
2023-04-02T11:40:52.297Z,6.42
2023-04-02T11:41:52.267Z,6.44
2023-04-02T11:42:52.257Z,6.46
2023-04-02T11:43:52.268Z,6.44
2023-04-02T11:44:52.235Z,6.46
2023-04-02T11:45:53.466Z,6.46
2023-04-02T11:46:52.299Z,6.48
2023-04-02T11:47:52.231Z,6.52
2023-04-02T11:48:52.194Z,6.52
2023-04-02T11:49:52.175Z,6.52
2023-04-02T11:50:52.186Z,6.54
2023-04-02T11:51:56.551Z,6.56
2023-04-02T11:52:52.159Z,6.57
2023-04-02T11:53:52.149Z,6.56
2023-04-02T11:54:52.139Z,6.57
2023-04-02T11:55:52.125Z,6.56
2023-04-02T11:56:52.124Z,6.59
2023-04-02T11:57:52.145Z,6.59
2023-04-02T11:58:52.103Z,6.57
2023-04-02T11:59:52.085Z,6.57
2023-04-02T12:00:52.078Z,6.57
2023-04-02T12:01:52.054Z,6.49
2023-04-02T12:02:52.106Z,6.48
2023-04-02T12:03:52.037Z,6.46
2023-04-02T12:04:52.079Z,6.39
2023-04-02T12:05:52.012Z,6.39
2023-04-02T12:06:52.010Z,6.39
2023-04-02T12:07:52.075Z,6.41
2023-04-02T12:08:58.015Z,6.42
2023-04-02T12:09:51.979Z,6.44
2023-04-02T12:10:51.986Z,6.44
2023-04-02T12:11:52.196Z,6.42
2023-04-02T12:12:51.944Z,6.46
2023-04-02T12:13:51.970Z,6.42
2023-04-02T12:14:51.955Z,6.36
2023-04-02T12:15:51.899Z,6.35
2023-04-02T12:16:51.958Z,6.35
2023-04-02T12:17:51.938Z,6.36
2023-04-02T12:18:51.884Z,6.36
2023-04-02T12:19:51.888Z,6.36
2023-04-02T12:20:51.875Z,6.33
2023-04-02T12:21:51.879Z,6.31
2023-04-02T12:22:51.855Z,6.27
2023-04-02T12:23:51.842Z,6.28
2023-04-02T12:24:51.836Z,6.22
2023-04-02T12:25:51.809Z,6.20
2023-04-02T12:26:51.800Z,6.19
2023-04-02T12:27:51.790Z,6.20
2023-04-02T12:28:51.769Z,6.20
2023-04-02T12:29:51.792Z,6.19
2023-04-02T12:30:51.768Z,6.17
2023-04-02T12:31:51.733Z,6.14
2023-04-02T12:32:51.763Z,6.14
2023-04-02T12:33:51.735Z,6.16
2023-04-02T12:34:51.721Z,6.12
2023-04-02T12:35:51.755Z,6.12
2023-04-02T12:36:51.720Z,6.16
2023-04-02T12:37:51.697Z,6.16
2023-04-02T12:38:51.700Z,6.17
2023-04-02T12:39:51.664Z,6.17
2023-04-02T12:40:51.685Z,6.19
2023-04-02T12:41:51.645Z,6.26
2023-04-02T12:42:51.635Z,6.26
2023-04-02T12:43:51.656Z,6.24
2023-04-02T12:44:51.617Z,6.20
2023-04-02T12:45:51.627Z,6.22
2023-04-02T12:46:51.614Z,6.22
2023-04-02T12:47:51.589Z,6.22
2023-04-02T12:48:51.576Z,6.24
2023-04-02T12:49:51.568Z,6.28
2023-04-02T12:50:51.571Z,6.31
2023-04-02T12:51:51.575Z,6.35
2023-04-02T12:52:51.554Z,6.39
2023-04-02T12:53:51.540Z,6.44
2023-04-02T12:54:51.525Z,6.41
2023-04-02T12:55:51.504Z,6.44
2023-04-02T12:56:51.524Z,6.45
2023-04-02T12:57:51.713Z,6.45
2023-04-02T12:58:51.478Z,6.46
2023-04-02T12:59:51.466Z,6.49
2023-04-02T13:00:51.456Z,6.48
2023-04-02T13:01:51.494Z,6.46
2023-04-02T13:02:51.484Z,6.46
2023-04-02T13:03:51.492Z,6.41
2023-04-02T13:04:51.428Z,6.36
2023-04-02T13:05:51.430Z,6.31
2023-04-02T13:06:51.409Z,6.30
2023-04-02T13:07:51.386Z,6.31
2023-04-02T13:08:51.397Z,6.35
2023-04-02T13:09:51.401Z,6.36
2023-04-02T13:10:51.363Z,6.41
2023-04-02T13:11:51.360Z,6.42
2023-04-02T13:12:51.327Z,6.39
2023-04-02T13:13:51.322Z,6.44
2023-04-02T13:14:51.345Z,6.44
2023-04-02T13:15:51.332Z,6.42
2023-04-02T13:16:51.309Z,6.44
2023-04-02T13:17:51.308Z,6.44
2023-04-02T13:18:51.310Z,6.45